sensor_id;sensor_type;location;lat;lon;timestamp;temperature;humidity
34099;DHT22;20374;49.474;10.944;2023-03-14T00:01:15;9.00;99.90
34099;DHT22;20374;49.474;10.944;2023-03-14T00:03:41;8.90;99.90
34099;DHT22;20374;49.474;10.944;2023-03-14T00:06:07;9.00;99.90
34099;DHT22;20374;49.474;10.944;2023-03-14T00:08:33;9.00;99.90
34099;DHT22;20374;49.474;10.944;2023-03-14T00:11:05;9.00;99.90
34099;DHT22;20374;49.474;10.944;2023-03-14T00:13:31;9.00;99.90
34099;DHT22;20374;49.474;10.944;2023-03-14T00:16:05;9.00;99.90
34099;DHT22;20374;49.474;10.944;2023-03-14T00:18:32;9.00;99.90
34099;DHT22;20374;49.474;10.944;2023-03-14T00:20:59;9.00;99.90
34099;DHT22;20374;49.474;10.944;2023-03-14T00:23:26;8.90;99.90
34099;DHT22;20374;49.474;10.944;2023-03-14T00:25:52;8.90;99.90
34099;DHT22;20374;49.474;10.944;2023-03-14T00:28:18;8.90;99.90
34099;DHT22;20374;49.474;10.944;2023-03-14T00:30:47;9.00;99.90
34099;DHT22;20374;49.474;10.944;2023-03-14T00:33:12;9.00;99.90
34099;DHT22;20374;49.474;10.944;2023-03-14T00:35:40;8.90;99.90
34099;DHT22;20374;49.474;10.944;2023-03-14T00:38:06;9.00;99.90
34099;DHT22;20374;49.474;10.944;2023-03-14T00:40:32;9.00;99.90
34099;DHT22;20374;49.474;10.944;2023-03-14T00:42:58;9.00;99.90
34099;DHT22;20374;49.474;10.944;2023-03-14T00:45:25;9.00;99.90
34099;DHT22;20374;49.474;10.944;2023-03-14T00:47:52;9.00;99.90
34099;DHT22;20374;49.474;10.944;2023-03-14T00:50:18;9.00;99.90
34099;DHT22;20374;49.474;10.944;2023-03-14T00:52:45;9.00;99.90
34099;DHT22;20374;49.474;10.944;2023-03-14T00:55:14;9.10;99.90
34099;DHT22;20374;49.474;10.944;2023-03-14T00:57:40;9.20;99.90
34099;DHT22;20374;49.474;10.944;2023-03-14T01:00:06;9.20;99.90
34099;DHT22;20374;49.474;10.944;2023-03-14T01:02:36;9.10;99.90
34099;DHT22;20374;49.474;10.944;2023-03-14T01:05:02;9.20;99.90
34099;DHT22;20374;49.474;10.944;2023-03-14T01:07:28;9.20;99.90
34099;DHT22;20374;49.474;10.944;2023-03-14T01:09:54;9.20;99.90
34099;DHT22;20374;49.474;10.944;2023-03-14T01:12:20;9.20;99.90
34099;DHT22;20374;49.474;10.944;2023-03-14T01:14:45;9.10;99.90
34099;DHT22;20374;49.474;10.944;2023-03-14T01:17:11;9.10;99.90
34099;DHT22;20374;49.474;10.944;2023-03-14T01:19:37;9.10;99.90
34099;DHT22;20374;49.474;10.944;2023-03-14T01:22:03;9.10;99.90
34099;DHT22;20374;49.474;10.944;2023-03-14T01:24:29;9.00;99.90
34099;DHT22;20374;49.474;10.944;2023-03-14T01:26:55;9.00;99.90
34099;DHT22;20374;49.474;10.944;2023-03-14T01:29:23;9.00;99.90
34099;DHT22;20374;49.474;10.944;2023-03-14T01:31:49;9.00;99.90
34099;DHT22;20374;49.474;10.944;2023-03-14T01:34:15;9.00;99.90
34099;DHT22;20374;49.474;10.944;2023-03-14T01:36:41;9.10;99.90
34099;DHT22;20374;49.474;10.944;2023-03-14T01:39:07;9.10;99.90
34099;DHT22;20374;49.474;10.944;2023-03-14T01:41:35;9.10;99.90
34099;DHT22;20374;49.474;10.944;2023-03-14T01:44:01;9.00;99.90
34099;DHT22;20374;49.474;10.944;2023-03-14T01:46:44;9.00;99.90
34099;DHT22;20374;49.474;10.944;2023-03-14T01:49:28;9.10;99.90
34099;DHT22;20374;49.474;10.944;2023-03-14T01:55:06;9.10;99.90
34099;DHT22;20374;49.474;10.944;2023-03-14T01:58:02;9.00;99.90
34099;DHT22;20374;49.474;10.944;2023-03-14T02:00:29;9.00;99.90
34099;DHT22;20374;49.474;10.944;2023-03-14T02:03:18;8.90;99.90
34099;DHT22;20374;49.474;10.944;2023-03-14T02:05:47;8.90;99.90
34099;DHT22;20374;49.474;10.944;2023-03-14T02:08:20;9.00;99.90
34099;DHT22;20374;49.474;10.944;2023-03-14T02:10:53;9.00;99.90
34099;DHT22;20374;49.474;10.944;2023-03-14T02:13:33;9.00;99.90
34099;DHT22;20374;49.474;10.944;2023-03-14T02:16:13;9.10;99.90
34099;DHT22;20374;49.474;10.944;2023-03-14T02:19:00;9.10;99.90
34099;DHT22;20374;49.474;10.944;2023-03-14T02:27:16;9.10;99.90
34099;DHT22;20374;49.474;10.944;2023-03-14T02:30:01;9.20;99.90
34099;DHT22;20374;49.474;10.944;2023-03-14T02:32:30;9.20;99.90
34099;DHT22;20374;49.474;10.944;2023-03-14T02:34:59;9.20;99.90
34099;DHT22;20374;49.474;10.944;2023-03-14T02:37:35;9.10;99.90
34099;DHT22;20374;49.474;10.944;2023-03-14T02:40:03;9.10;99.90
34099;DHT22;20374;49.474;10.944;2023-03-14T02:42:31;9.10;99.90
34099;DHT22;20374;49.474;10.944;2023-03-14T02:47:44;9.10;99.90
34099;DHT22;20374;49.474;10.944;2023-03-14T02:50:19;9.00;99.90
34099;DHT22;20374;49.474;10.944;2023-03-14T02:52:46;9.00;99.90
34099;DHT22;20374;49.474;10.944;2023-03-14T02:55:12;9.00;99.90
34099;DHT22;20374;49.474;10.944;2023-03-14T02:57:41;9.00;99.90
34099;DHT22;20374;49.474;10.944;2023-03-14T03:00:07;9.00;99.90
34099;DHT22;20374;49.474;10.944;2023-03-14T03:02:36;9.00;99.90
34099;DHT22;20374;49.474;10.944;2023-03-14T03:05:02;9.00;99.90
34099;DHT22;20374;49.474;10.944;2023-03-14T03:07:28;8.90;99.90
34099;DHT22;20374;49.474;10.944;2023-03-14T03:09:57;8.90;99.90
34099;DHT22;20374;49.474;10.944;2023-03-14T03:12:23;8.80;99.90
34099;DHT22;20374;49.474;10.944;2023-03-14T03:14:48;8.80;99.90
34099;DHT22;20374;49.474;10.944;2023-03-14T03:17:14;8.90;99.90
34099;DHT22;20374;49.474;10.944;2023-03-14T03:19:40;8.90;99.90
34099;DHT22;20374;49.474;10.944;2023-03-14T03:22:07;8.90;99.90
34099;DHT22;20374;49.474;10.944;2023-03-14T03:24:33;8.90;99.90
34099;DHT22;20374;49.474;10.944;2023-03-14T03:27:01;8.90;99.90
34099;DHT22;20374;49.474;10.944;2023-03-14T03:29:27;8.80;99.90
34099;DHT22;20374;49.474;10.944;2023-03-14T03:31:54;8.90;99.90
34099;DHT22;20374;49.474;10.944;2023-03-14T03:34:20;8.90;99.90
34099;DHT22;20374;49.474;10.944;2023-03-14T03:36:49;8.80;99.90
34099;DHT22;20374;49.474;10.944;2023-03-14T03:39:15;8.80;99.90
34099;DHT22;20374;49.474;10.944;2023-03-14T03:41:41;8.80;99.90
34099;DHT22;20374;49.474;10.944;2023-03-14T03:44:07;8.70;99.90
34099;DHT22;20374;49.474;10.944;2023-03-14T03:46:33;8.80;99.90
34099;DHT22;20374;49.474;10.944;2023-03-14T03:48:59;8.80;99.90
34099;DHT22;20374;49.474;10.944;2023-03-14T03:51:27;8.80;99.90
34099;DHT22;20374;49.474;10.944;2023-03-14T03:53:53;8.80;99.90
34099;DHT22;20374;49.474;10.944;2023-03-14T03:56:27;8.80;99.90
34099;DHT22;20374;49.474;10.944;2023-03-14T03:58:53;8.80;99.90
34099;DHT22;20374;49.474;10.944;2023-03-14T04:01:18;8.80;99.90
34099;DHT22;20374;49.474;10.944;2023-03-14T04:03:48;8.70;99.90
34099;DHT22;20374;49.474;10.944;2023-03-14T04:06:14;8.80;99.90
34099;DHT22;20374;49.474;10.944;2023-03-14T04:08:43;8.70;99.90
34099;DHT22;20374;49.474;10.944;2023-03-14T04:11:18;8.70;99.90
34099;DHT22;20374;49.474;10.944;2023-03-14T04:14:03;8.60;99.90
34099;DHT22;20374;49.474;10.944;2023-03-14T04:16:30;8.60;99.90
34099;DHT22;20374;49.474;10.944;2023-03-14T04:19:06;8.60;99.90
34099;DHT22;20374;49.474;10.944;2023-03-14T04:21:32;8.50;99.90
34099;DHT22;20374;49.474;10.944;2023-03-14T04:23:58;8.50;99.90
34099;DHT22;20374;49.474;10.944;2023-03-14T04:26:27;8.60;99.90
34099;DHT22;20374;49.474;10.944;2023-03-14T04:28:53;8.50;99.90
34099;DHT22;20374;49.474;10.944;2023-03-14T04:31:21;8.60;99.90
34099;DHT22;20374;49.474;10.944;2023-03-14T04:33:48;8.60;99.90
34099;DHT22;20374;49.474;10.944;2023-03-14T04:36:18;8.50;99.90
34099;DHT22;20374;49.474;10.944;2023-03-14T04:38:44;8.50;99.90
34099;DHT22;20374;49.474;10.944;2023-03-14T04:41:12;8.50;99.90
34099;DHT22;20374;49.474;10.944;2023-03-14T04:43:39;8.50;99.90
34099;DHT22;20374;49.474;10.944;2023-03-14T04:46:07;8.40;99.90
34099;DHT22;20374;49.474;10.944;2023-03-14T04:48:33;8.50;99.90
34099;DHT22;20374;49.474;10.944;2023-03-14T04:51:00;8.40;99.90
34099;DHT22;20374;49.474;10.944;2023-03-14T04:53:30;8.40;99.90
34099;DHT22;20374;49.474;10.944;2023-03-14T04:55:57;8.40;99.90
34099;DHT22;20374;49.474;10.944;2023-03-14T04:58:28;8.40;99.90
34099;DHT22;20374;49.474;10.944;2023-03-14T05:00:56;8.50;99.90
34099;DHT22;20374;49.474;10.944;2023-03-14T05:03:38;8.40;99.90
34099;DHT22;20374;49.474;10.944;2023-03-14T05:06:07;8.40;99.90
34099;DHT22;20374;49.474;10.944;2023-03-14T05:09:09;8.40;99.90
34099;DHT22;20374;49.474;10.944;2023-03-14T05:11:37;8.30;99.90
34099;DHT22;20374;49.474;10.944;2023-03-14T05:14:12;8.30;99.90
34099;DHT22;20374;49.474;10.944;2023-03-14T05:17:04;8.30;99.90
34099;DHT22;20374;49.474;10.944;2023-03-14T05:19:53;8.30;99.90
34099;DHT22;20374;49.474;10.944;2023-03-14T05:22:25;8.30;99.90
34099;DHT22;20374;49.474;10.944;2023-03-14T05:25:09;8.30;99.90
34099;DHT22;20374;49.474;10.944;2023-03-14T05:27:47;8.30;99.90
34099;DHT22;20374;49.474;10.944;2023-03-14T05:30:45;8.20;99.90
34099;DHT22;20374;49.474;10.944;2023-03-14T05:33:42;8.20;99.90
34099;DHT22;20374;49.474;10.944;2023-03-14T05:36:31;8.20;99.90
34099;DHT22;20374;49.474;10.944;2023-03-14T05:39:35;8.10;99.90
34099;DHT22;20374;49.474;10.944;2023-03-14T05:42:29;8.20;99.90
34099;DHT22;20374;49.474;10.944;2023-03-14T05:45:07;8.20;99.90
34099;DHT22;20374;49.474;10.944;2023-03-14T05:47:59;8.20;99.90
34099;DHT22;20374;49.474;10.944;2023-03-14T05:50:34;8.20;99.90
34099;DHT22;20374;49.474;10.944;2023-03-14T05:53:15;8.20;99.90
34099;DHT22;20374;49.474;10.944;2023-03-14T05:55:55;8.20;99.90
34099;DHT22;20374;49.474;10.944;2023-03-14T05:58:39;8.20;99.90
34099;DHT22;20374;49.474;10.944;2023-03-14T06:01:26;8.20;99.90
34099;DHT22;20374;49.474;10.944;2023-03-14T06:04:15;8.20;99.90
34099;DHT22;20374;49.474;10.944;2023-03-14T06:06:44;8.20;99.90
34099;DHT22;20374;49.474;10.944;2023-03-14T06:09:11;8.20;99.90
34099;DHT22;20374;49.474;10.944;2023-03-14T06:11:40;8.20;99.90
34099;DHT22;20374;49.474;10.944;2023-03-14T06:14:06;8.20;99.90
34099;DHT22;20374;49.474;10.944;2023-03-14T06:16:33;8.20;99.90
34099;DHT22;20374;49.474;10.944;2023-03-14T06:18:59;8.30;99.90
34099;DHT22;20374;49.474;10.944;2023-03-14T06:21:25;8.30;99.90
34099;DHT22;20374;49.474;10.944;2023-03-14T06:23:51;8.40;99.90
34099;DHT22;20374;49.474;10.944;2023-03-14T06:26:19;8.40;99.90
34099;DHT22;20374;49.474;10.944;2023-03-14T06:28:45;8.40;99.90
34099;DHT22;20374;49.474;10.944;2023-03-14T06:31:11;8.40;99.90
34099;DHT22;20374;49.474;10.944;2023-03-14T06:33:46;8.40;99.90
34099;DHT22;20374;49.474;10.944;2023-03-14T06:36:12;8.50;99.90
34099;DHT22;20374;49.474;10.944;2023-03-14T06:38:41;8.50;99.90
34099;DHT22;20374;49.474;10.944;2023-03-14T06:41:07;8.50;99.90
34099;DHT22;20374;49.474;10.944;2023-03-14T06:43:38;8.60;99.90
34099;DHT22;20374;49.474;10.944;2023-03-14T06:46:06;8.60;99.90
34099;DHT22;20374;49.474;10.944;2023-03-14T06:48:33;8.70;99.90
34099;DHT22;20374;49.474;10.944;2023-03-14T06:51:00;8.70;99.90
34099;DHT22;20374;49.474;10.944;2023-03-14T06:53:26;8.70;99.90
34099;DHT22;20374;49.474;10.944;2023-03-14T06:55:52;8.80;99.90
34099;DHT22;20374;49.474;10.944;2023-03-14T06:58:19;8.80;99.90
34099;DHT22;20374;49.474;10.944;2023-03-14T07:00:45;8.80;99.90
34099;DHT22;20374;49.474;10.944;2023-03-14T07:03:15;8.90;99.90
34099;DHT22;20374;49.474;10.944;2023-03-14T07:05:44;8.90;99.90
34099;DHT22;20374;49.474;10.944;2023-03-14T07:08:10;9.00;99.90
34099;DHT22;20374;49.474;10.944;2023-03-14T07:10:36;9.00;99.90
34099;DHT22;20374;49.474;10.944;2023-03-14T07:13:03;8.90;99.90
34099;DHT22;20374;49.474;10.944;2023-03-14T07:15:33;9.00;99.90
34099;DHT22;20374;49.474;10.944;2023-03-14T07:18:04;9.00;99.90
34099;DHT22;20374;49.474;10.944;2023-03-14T07:20:30;8.90;99.90
34099;DHT22;20374;49.474;10.944;2023-03-14T07:22:58;9.10;99.90
34099;DHT22;20374;49.474;10.944;2023-03-14T07:25:36;9.20;99.90
34099;DHT22;20374;49.474;10.944;2023-03-14T07:28:02;9.30;99.90
34099;DHT22;20374;49.474;10.944;2023-03-14T07:30:29;9.30;99.90
34099;DHT22;20374;49.474;10.944;2023-03-14T07:32:57;9.50;99.90
34099;DHT22;20374;49.474;10.944;2023-03-14T07:35:24;9.50;99.90
34099;DHT22;20374;49.474;10.944;2023-03-14T07:37:50;9.50;99.90
34099;DHT22;20374;49.474;10.944;2023-03-14T07:40:19;9.50;99.90
34099;DHT22;20374;49.474;10.944;2023-03-14T07:42:48;9.50;99.90
34099;DHT22;20374;49.474;10.944;2023-03-14T07:45:27;9.50;99.90
34099;DHT22;20374;49.474;10.944;2023-03-14T07:47:53;9.50;99.90
34099;DHT22;20374;49.474;10.944;2023-03-14T07:50:24;9.50;99.90
34099;DHT22;20374;49.474;10.944;2023-03-14T07:52:50;9.70;99.90
34099;DHT22;20374;49.474;10.944;2023-03-14T07:55:16;9.80;99.90
34099;DHT22;20374;49.474;10.944;2023-03-14T07:57:42;9.80;99.90
34099;DHT22;20374;49.474;10.944;2023-03-14T08:00:08;10.00;99.90
34099;DHT22;20374;49.474;10.944;2023-03-14T08:02:41;10.40;99.90
34099;DHT22;20374;49.474;10.944;2023-03-14T08:05:12;10.90;99.90
34099;DHT22;20374;49.474;10.944;2023-03-14T08:07:37;11.10;99.90
34099;DHT22;20374;49.474;10.944;2023-03-14T08:10:04;11.00;99.90
34099;DHT22;20374;49.474;10.944;2023-03-14T08:12:30;10.90;99.90
34099;DHT22;20374;49.474;10.944;2023-03-14T08:14:56;10.70;99.90
34099;DHT22;20374;49.474;10.944;2023-03-14T08:17:22;10.70;99.90
34099;DHT22;20374;49.474;10.944;2023-03-14T08:19:48;10.60;99.90
34099;DHT22;20374;49.474;10.944;2023-03-14T08:22:14;10.50;99.90
34099;DHT22;20374;49.474;10.944;2023-03-14T08:24:40;10.60;99.90
34099;DHT22;20374;49.474;10.944;2023-03-14T08:27:06;10.60;99.90
34099;DHT22;20374;49.474;10.944;2023-03-14T08:29:32;10.80;99.90
34099;DHT22;20374;49.474;10.944;2023-03-14T08:31:58;11.20;99.90
34099;DHT22;20374;49.474;10.944;2023-03-14T08:34:24;11.50;99.90
34099;DHT22;20374;49.474;10.944;2023-03-14T08:36:50;11.90;99.90
34099;DHT22;20374;49.474;10.944;2023-03-14T08:39:16;12.50;99.90
34099;DHT22;20374;49.474;10.944;2023-03-14T08:41:42;13.10;99.90
34099;DHT22;20374;49.474;10.944;2023-03-14T08:44:10;14.00;99.90
34099;DHT22;20374;49.474;10.944;2023-03-14T08:46:39;15.00;99.90
34099;DHT22;20374;49.474;10.944;2023-03-14T08:49:05;15.30;99.90
34099;DHT22;20374;49.474;10.944;2023-03-14T08:51:31;15.40;99.90
34099;DHT22;20374;49.474;10.944;2023-03-14T08:53:57;15.20;99.90
34099;DHT22;20374;49.474;10.944;2023-03-14T08:56:23;14.60;99.90
34099;DHT22;20374;49.474;10.944;2023-03-14T08:58:48;13.80;99.90
34099;DHT22;20374;49.474;10.944;2023-03-14T09:01:14;13.20;99.90
34099;DHT22;20374;49.474;10.944;2023-03-14T09:03:40;13.00;99.90
34099;DHT22;20374;49.474;10.944;2023-03-14T09:06:09;12.80;99.90
34099;DHT22;20374;49.474;10.944;2023-03-14T09:08:36;12.70;99.90
34099;DHT22;20374;49.474;10.944;2023-03-14T09:11:02;12.40;99.90
34099;DHT22;20374;49.474;10.944;2023-03-14T09:13:28;12.60;99.90
34099;DHT22;20374;49.474;10.944;2023-03-14T09:15:55;12.80;99.90
34099;DHT22;20374;49.474;10.944;2023-03-14T09:18:22;13.10;99.90
34099;DHT22;20374;49.474;10.944;2023-03-14T09:20:48;13.40;99.90
34099;DHT22;20374;49.474;10.944;2023-03-14T09:23:15;13.30;99.90
34099;DHT22;20374;49.474;10.944;2023-03-14T09:25:40;13.20;99.90
34099;DHT22;20374;49.474;10.944;2023-03-14T09:28:06;13.20;99.90
34099;DHT22;20374;49.474;10.944;2023-03-14T09:30:33;13.10;99.90
34099;DHT22;20374;49.474;10.944;2023-03-14T09:32:58;13.00;99.90
34099;DHT22;20374;49.474;10.944;2023-03-14T09:35:25;12.90;99.90
34099;DHT22;20374;49.474;10.944;2023-03-14T09:37:51;12.70;99.90
34099;DHT22;20374;49.474;10.944;2023-03-14T09:40:18;12.60;99.90
34099;DHT22;20374;49.474;10.944;2023-03-14T09:42:51;12.50;99.90
34099;DHT22;20374;49.474;10.944;2023-03-14T09:45:27;12.40;99.90
34099;DHT22;20374;49.474;10.944;2023-03-14T09:47:55;12.30;99.90
34099;DHT22;20374;49.474;10.944;2023-03-14T09:50:23;12.10;99.90
34099;DHT22;20374;49.474;10.944;2023-03-14T09:52:51;12.10;99.90
34099;DHT22;20374;49.474;10.944;2023-03-14T09:55:21;12.10;99.90
34099;DHT22;20374;49.474;10.944;2023-03-14T09:57:49;12.00;99.90
34099;DHT22;20374;49.474;10.944;2023-03-14T10:00:21;11.90;99.90
34099;DHT22;20374;49.474;10.944;2023-03-14T10:02:55;11.80;99.90
34099;DHT22;20374;49.474;10.944;2023-03-14T10:05:24;11.80;99.90
34099;DHT22;20374;49.474;10.944;2023-03-14T10:07:50;11.70;99.90
34099;DHT22;20374;49.474;10.944;2023-03-14T10:10:19;11.80;99.90
34099;DHT22;20374;49.474;10.944;2023-03-14T10:12:47;11.90;99.90
34099;DHT22;20374;49.474;10.944;2023-03-14T10:15:15;12.00;99.90
34099;DHT22;20374;49.474;10.944;2023-03-14T10:17:49;12.00;99.90
34099;DHT22;20374;49.474;10.944;2023-03-14T10:21:29;12.10;99.90
34099;DHT22;20374;49.474;10.944;2023-03-14T10:23:27;12.10;99.90
34099;DHT22;20374;49.474;10.944;2023-03-14T10:28:34;12.10;99.90
34099;DHT22;20374;49.474;10.944;2023-03-14T10:31:00;12.20;99.90
34099;DHT22;20374;49.474;10.944;2023-03-14T10:33:27;12.10;99.90
34099;DHT22;20374;49.474;10.944;2023-03-14T10:36:20;12.20;99.90
34099;DHT22;20374;49.474;10.944;2023-03-14T10:38:47;12.30;99.90
34099;DHT22;20374;49.474;10.944;2023-03-14T10:41:24;12.20;99.90
34099;DHT22;20374;49.474;10.944;2023-03-14T10:43:53;12.10;99.90
34099;DHT22;20374;49.474;10.944;2023-03-14T10:46:24;12.10;99.90
34099;DHT22;20374;49.474;10.944;2023-03-14T10:49:25;12.10;99.90
34099;DHT22;20374;49.474;10.944;2023-03-14T10:51:52;12.00;99.90
34099;DHT22;20374;49.474;10.944;2023-03-14T10:54:22;12.00;99.90
34099;DHT22;20374;49.474;10.944;2023-03-14T10:56:57;11.90;99.90
34099;DHT22;20374;49.474;10.944;2023-03-14T10:59:23;11.80;99.90
34099;DHT22;20374;49.474;10.944;2023-03-14T11:02:07;11.80;99.90
34099;DHT22;20374;49.474;10.944;2023-03-14T11:07:42;11.70;99.90
34099;DHT22;20374;49.474;10.944;2023-03-14T11:10:18;11.70;99.90
34099;DHT22;20374;49.474;10.944;2023-03-14T11:15:19;12.20;99.90
34099;DHT22;20374;49.474;10.944;2023-03-14T11:31:49;12.90;99.90
34099;DHT22;20374;49.474;10.944;2023-03-14T11:34:19;13.50;99.90
34099;DHT22;20374;49.474;10.944;2023-03-14T11:37:07;14.00;99.90
34099;DHT22;20374;49.474;10.944;2023-03-14T11:39:41;14.60;99.90
34099;DHT22;20374;49.474;10.944;2023-03-14T11:42:12;15.40;99.90
34099;DHT22;20374;49.474;10.944;2023-03-14T11:44:40;16.10;99.90
34099;DHT22;20374;49.474;10.944;2023-03-14T11:47:31;16.40;99.50
34099;DHT22;20374;49.474;10.944;2023-03-14T11:50:18;16.30;98.60
34099;DHT22;20374;49.474;10.944;2023-03-14T11:52:53;16.20;99.50
34099;DHT22;20374;49.474;10.944;2023-03-14T11:55:27;16.40;98.90
34099;DHT22;20374;49.474;10.944;2023-03-14T11:58:00;16.70;97.40
34099;DHT22;20374;49.474;10.944;2023-03-14T12:00:27;16.50;97.60
34099;DHT22;20374;49.474;10.944;2023-03-14T12:08:45;17.70;94.60
34099;DHT22;20374;49.474;10.944;2023-03-14T12:11:13;17.50;94.70
34099;DHT22;20374;49.474;10.944;2023-03-14T12:13:50;17.00;93.70
34099;DHT22;20374;49.474;10.944;2023-03-14T12:18:48;16.00;95.10
34099;DHT22;20374;49.474;10.944;2023-03-14T12:21:14;15.70;96.60
34099;DHT22;20374;49.474;10.944;2023-03-14T12:23:53;15.30;97.00
34099;DHT22;20374;49.474;10.944;2023-03-14T12:26:20;15.00;98.50
34099;DHT22;20374;49.474;10.944;2023-03-14T12:34:24;15.20;98.60
34099;DHT22;20374;49.474;10.944;2023-03-14T12:37:05;15.40;97.40
34099;DHT22;20374;49.474;10.944;2023-03-14T12:43:23;15.80;95.60
34099;DHT22;20374;49.474;10.944;2023-03-14T12:45:33;15.60;96.00
34099;DHT22;20374;49.474;10.944;2023-03-14T12:51:00;15.00;96.30
34099;DHT22;20374;49.474;10.944;2023-03-14T12:56:25;13.70;99.90
34099;DHT22;20374;49.474;10.944;2023-03-14T13:02:37;12.70;99.90
34099;DHT22;20374;49.474;10.944;2023-03-14T13:07:32;12.30;99.90
34099;DHT22;20374;49.474;10.944;2023-03-14T13:23:37;11.20;99.90
34099;DHT22;20374;49.474;10.944;2023-03-14T13:26:03;11.00;99.90
34099;DHT22;20374;49.474;10.944;2023-03-14T13:28:35;10.80;99.90
34099;DHT22;20374;49.474;10.944;2023-03-14T13:31:02;10.50;99.90
34099;DHT22;20374;49.474;10.944;2023-03-14T13:33:30;10.30;99.90
34099;DHT22;20374;49.474;10.944;2023-03-14T13:35:58;10.20;99.90
34099;DHT22;20374;49.474;10.944;2023-03-14T13:38:30;10.00;99.90
34099;DHT22;20374;49.474;10.944;2023-03-14T13:40:58;9.90;99.90
34099;DHT22;20374;49.474;10.944;2023-03-14T13:43:30;9.80;99.90
34099;DHT22;20374;49.474;10.944;2023-03-14T13:46:10;9.70;99.90
34099;DHT22;20374;49.474;10.944;2023-03-14T13:48:49;9.60;99.90
34099;DHT22;20374;49.474;10.944;2023-03-14T13:51:18;9.50;99.90
34099;DHT22;20374;49.474;10.944;2023-03-14T13:53:49;9.50;99.90
34099;DHT22;20374;49.474;10.944;2023-03-14T13:56:19;9.50;99.90
34099;DHT22;20374;49.474;10.944;2023-03-14T13:58:46;9.40;99.90
34099;DHT22;20374;49.474;10.944;2023-03-14T14:01:14;9.40;99.90
34099;DHT22;20374;49.474;10.944;2023-03-14T14:03:43;9.40;99.90
34099;DHT22;20374;49.474;10.944;2023-03-14T14:06:36;9.30;99.90
34099;DHT22;20374;49.474;10.944;2023-03-14T14:09:24;9.30;99.90
34099;DHT22;20374;49.474;10.944;2023-03-14T14:11:54;9.20;99.90
34099;DHT22;20374;49.474;10.944;2023-03-14T14:14:23;9.20;99.90
34099;DHT22;20374;49.474;10.944;2023-03-14T14:16:50;9.20;99.90
34099;DHT22;20374;49.474;10.944;2023-03-14T14:19:17;9.20;99.90
34099;DHT22;20374;49.474;10.944;2023-03-14T14:21:44;9.20;99.90
34099;DHT22;20374;49.474;10.944;2023-03-14T14:24:14;9.10;99.90
34099;DHT22;20374;49.474;10.944;2023-03-14T14:26:49;9.10;99.90
34099;DHT22;20374;49.474;10.944;2023-03-14T14:29:30;9.00;99.90
34099;DHT22;20374;49.474;10.944;2023-03-14T14:35:06;8.80;99.90
34099;DHT22;20374;49.474;10.944;2023-03-14T14:37:35;8.80;99.90
34099;DHT22;20374;49.474;10.944;2023-03-14T14:40:24;8.60;99.90
34099;DHT22;20374;49.474;10.944;2023-03-14T14:42:50;8.50;99.90
34099;DHT22;20374;49.474;10.944;2023-03-14T14:45:22;8.30;99.90
34099;DHT22;20374;49.474;10.944;2023-03-14T14:48:10;8.30;99.90
34099;DHT22;20374;49.474;10.944;2023-03-14T14:55:55;8.00;99.90
34099;DHT22;20374;49.474;10.944;2023-03-14T14:58:33;7.90;99.90
34099;DHT22;20374;49.474;10.944;2023-03-14T15:03:32;7.60;99.90
34099;DHT22;20374;49.474;10.944;2023-03-14T15:05:59;7.50;99.90
34099;DHT22;20374;49.474;10.944;2023-03-14T15:08:26;7.50;99.90
34099;DHT22;20374;49.474;10.944;2023-03-14T15:10:54;7.50;99.90
34099;DHT22;20374;49.474;10.944;2023-03-14T15:13:20;7.40;99.90
34099;DHT22;20374;49.474;10.944;2023-03-14T15:15:46;7.30;99.90
34099;DHT22;20374;49.474;10.944;2023-03-14T15:18:17;7.30;99.90
34099;DHT22;20374;49.474;10.944;2023-03-14T15:20:44;7.20;99.90
34099;DHT22;20374;49.474;10.944;2023-03-14T15:23:12;7.00;99.90
34099;DHT22;20374;49.474;10.944;2023-03-14T15:25:38;6.90;99.90
34099;DHT22;20374;49.474;10.944;2023-03-14T15:28:19;6.80;99.90
34099;DHT22;20374;49.474;10.944;2023-03-14T15:30:50;6.80;99.90
34099;DHT22;20374;49.474;10.944;2023-03-14T15:33:17;6.70;99.90
34099;DHT22;20374;49.474;10.944;2023-03-14T15:35:43;6.70;99.90
34099;DHT22;20374;49.474;10.944;2023-03-14T15:38:11;6.60;99.90
34099;DHT22;20374;49.474;10.944;2023-03-14T15:40:37;6.60;99.90
34099;DHT22;20374;49.474;10.944;2023-03-14T15:43:03;6.60;99.90
34099;DHT22;20374;49.474;10.944;2023-03-14T15:45:30;6.60;99.90
34099;DHT22;20374;49.474;10.944;2023-03-14T15:47:56;6.50;99.90
34099;DHT22;20374;49.474;10.944;2023-03-14T15:50:22;6.60;99.90
34099;DHT22;20374;49.474;10.944;2023-03-14T15:52:48;6.50;99.90
34099;DHT22;20374;49.474;10.944;2023-03-14T15:55:14;6.60;99.90
34099;DHT22;20374;49.474;10.944;2023-03-14T15:57:42;6.60;99.90
34099;DHT22;20374;49.474;10.944;2023-03-14T16:00:14;6.70;99.90
34099;DHT22;20374;49.474;10.944;2023-03-14T16:02:41;6.70;99.90
34099;DHT22;20374;49.474;10.944;2023-03-14T16:05:09;6.70;99.90
34099;DHT22;20374;49.474;10.944;2023-03-14T16:07:35;6.70;99.90
34099;DHT22;20374;49.474;10.944;2023-03-14T16:10:02;6.70;99.90
34099;DHT22;20374;49.474;10.944;2023-03-14T16:12:29;6.70;99.90
34099;DHT22;20374;49.474;10.944;2023-03-14T16:14:55;6.70;99.90
34099;DHT22;20374;49.474;10.944;2023-03-14T16:17:21;6.60;99.90
34099;DHT22;20374;49.474;10.944;2023-03-14T16:19:47;6.60;99.90
34099;DHT22;20374;49.474;10.944;2023-03-14T16:22:13;6.60;99.90
34099;DHT22;20374;49.474;10.944;2023-03-14T16:24:38;6.60;99.90
34099;DHT22;20374;49.474;10.944;2023-03-14T16:27:04;6.60;99.90
34099;DHT22;20374;49.474;10.944;2023-03-14T16:29:30;6.50;99.90
34099;DHT22;20374;49.474;10.944;2023-03-14T16:31:56;6.50;99.90
34099;DHT22;20374;49.474;10.944;2023-03-14T16:34:22;6.50;99.90
34099;DHT22;20374;49.474;10.944;2023-03-14T16:36:48;6.40;99.90
34099;DHT22;20374;49.474;10.944;2023-03-14T16:39:17;6.40;99.90
34099;DHT22;20374;49.474;10.944;2023-03-14T16:41:44;6.40;99.90
34099;DHT22;20374;49.474;10.944;2023-03-14T16:44:10;6.40;99.90
34099;DHT22;20374;49.474;10.944;2023-03-14T16:46:36;6.40;99.90
34099;DHT22;20374;49.474;10.944;2023-03-14T16:49:03;6.40;99.90
34099;DHT22;20374;49.474;10.944;2023-03-14T16:51:29;6.40;99.90
34099;DHT22;20374;49.474;10.944;2023-03-14T16:53:55;6.40;99.90
34099;DHT22;20374;49.474;10.944;2023-03-14T16:56:21;6.50;99.90
34099;DHT22;20374;49.474;10.944;2023-03-14T16:58:48;6.50;99.90
34099;DHT22;20374;49.474;10.944;2023-03-14T17:01:16;6.50;99.90
34099;DHT22;20374;49.474;10.944;2023-03-14T17:03:44;6.50;99.90
34099;DHT22;20374;49.474;10.944;2023-03-14T17:06:12;6.50;99.90
34099;DHT22;20374;49.474;10.944;2023-03-14T17:08:38;6.50;99.90
34099;DHT22;20374;49.474;10.944;2023-03-14T17:11:04;6.60;99.90
34099;DHT22;20374;49.474;10.944;2023-03-14T17:13:30;6.50;99.90